sensor_id;sensor_type;location;lat;lon;timestamp;pressure;altitude;pressure_sealevel;temperature;humidity
61740;BME280;47645;45.288;12.038;2023-12-04T00:04:26;1024.4700818145152;;;0.9630859375;100
61740;BME280;47645;45.288;12.038;2023-12-04T00:14:26;1024.406806759652;;;1.008984375;100
61740;BME280;47645;45.288;12.038;2023-12-04T00:24:26;1024.4462646687714;;;0.92734375;100
61740;BME280;47645;45.288;12.038;2023-12-04T00:34:27;1024.3125217773265;;;0.9935546875;100
61740;BME280;47645;45.288;12.038;2023-12-04T00:44:27;1024.3053884915525;;;0.932421875;100
61740;BME280;47645;45.288;12.038;2023-12-04T00:54:28;1024.303925192593;;;1.0904296875;100
61740;BME280;47645;45.288;12.038;2023-12-04T01:04:28;1024.336409085325;;;1.136328125;100
61740;BME280;47645;45.288;12.038;2023-12-04T01:14:29;1024.4995583818018;;;1.33515625;100
61740;BME280;47645;45.288;12.038;2023-12-04T01:24:29;1024.3903726596407;;;1.819140625;100
61740;BME280;47645;45.288;12.038;2023-12-04T01:34:29;1024.3651328034837;;;1.16171875;100
61740;BME280;47645;45.288;12.038;2023-12-04T01:44:29;1024.3599486417888;;;1.223046875;100
61740;BME280;47645;45.288;12.038;2023-12-04T01:54:31;1024.26072508771;;;1.7427734375;100
61740;BME280;47645;45.288;12.038;2023-12-04T02:04:31;1024.2541572221355;;;0.9681640625;100
61740;BME280;47645;45.288;12.038;2023-12-04T02:14:31;1024.1107073464339;;;0.90703125;100
61740;BME280;47645;45.288;12.038;2023-12-04T02:24:35;1024.0293292390645;;;0.708203125;100
61740;BME280;47645;45.288;12.038;2023-12-04T02:34:32;1023.8868736043461;;;0.6470703125;100
61740;BME280;47645;45.288;12.038;2023-12-04T02:44:32;1023.6787442435473;;;0.6470703125;100
61740;BME280;47645;45.288;12.038;2023-12-04T02:54:32;1023.5733043379937;;;0.387109375;100
61740;BME280;47645;45.288;12.038;2023-12-04T03:04:34;1023.6524267428183;;;0.494140625;100
61740;BME280;47645;45.288;12.038;2023-12-04T03:14:33;1023.6273389270372;;;0.6267578125;100
61740;BME280;47645;45.288;12.038;2023-12-04T03:24:33;1023.5911794463764;;;0.570703125;100
61740;BME280;47645;45.288;12.038;2023-12-04T03:34:33;1023.6766953203477;;;1.019140625;100
61740;BME280;47645;45.288;12.038;2023-12-04T03:44:34;1023.8387840549595;;;1.1005859375;100
61740;BME280;47645;45.288;12.038;2023-12-04T03:54:34;1023.9667551913336;;;0.922265625;100
61740;BME280;47645;45.288;12.038;2023-12-04T04:04:34;1023.815558278822;;;0.6115234375;100
61740;BME280;47645;45.288;12.038;2023-12-04T04:14:35;1023.6000457271072;;;0.9529296875;100
61740;BME280;47645;45.288;12.038;2023-12-04T04:24:35;1023.5696122095651;;;1.1515625;100
61740;BME280;47645;45.288;12.038;2023-12-04T04:34:35;1023.4021939279187;;;0.7541015625;100
61740;BME280;47645;45.288;12.038;2023-12-04T04:44:36;1023.2393681400381;;;0.718359375;100
61740;BME280;47645;45.288;12.038;2023-12-04T04:54:36;1023.2487797333998;;;0.4279296875;100
61740;BME280;47645;45.288;12.038;2023-12-04T05:04:36;1023.2336184717492;;;0.6115234375;100
61740;BME280;47645;45.288;12.038;2023-12-04T05:14:36;1023.357085727187;;;1.034375;100
61740;BME280;47645;45.288;12.038;2023-12-04T05:24:37;1023.4143717170577;;;0.5298828125;100
61740;BME280;47645;45.288;12.038;2023-12-04T05:34:37;1023.4397381446164;;;0.3515625;100
61740;BME280;47645;45.288;12.038;2023-12-04T05:44:37;1023.5003557629096;;;0.5197265625;100
61740;BME280;47645;45.288;12.038;2023-12-04T05:54:38;1023.428146209941;;;0.387109375;100
61740;BME280;47645;45.288;12.038;2023-12-04T06:04:38;1023.3935148633707;;;0.366796875;100
61740;BME280;47645;45.288;12.038;2023-12-04T06:14:38;1023.3377875827081;;;0.7642578125;100
61740;BME280;47645;45.288;12.038;2023-12-04T06:24:39;1023.3320815309562;;;0.805078125;100
61740;BME280;47645;45.288;12.038;2023-12-04T06:34:40;1023.3083503613421;;;0.4228515625;100
61740;BME280;47645;45.288;12.038;2023-12-04T06:44:40;1023.309803736983;;;0.45859375;100
61740;BME280;47645;45.288;12.038;2023-12-04T06:54:40;1023.3506881010602;;;0.5197265625;100
61740;BME280;47645;45.288;12.038;2023-12-04T07:04:40;1023.4315685116525;;;0.5095703125;100
61740;BME280;47645;45.288;12.038;2023-12-04T07:14:40;1023.4524595289134;;;0.7439453125;100
61740;BME280;47645;45.288;12.038;2023-12-04T07:24:41;1023.5797632958742;;;0.7490234375;100
61740;BME280;47645;45.288;12.038;2023-12-04T07:34:41;1023.4917061686104;;;0.805078125;100
61740;BME280;47645;45.288;12.038;2023-12-04T07:44:41;1023.6680900007156;;;1.00390625;100
61740;BME280;47645;45.288;12.038;2023-12-04T07:54:42;1023.5807924305823;;;1.330078125;100
61740;BME280;47645;45.288;12.038;2023-12-04T08:04:42;1023.545569944423;;;1.559375;100
61740;BME280;47645;45.288;12.038;2023-12-04T08:14:43;1023.455844255113;;;2.012890625;97.66831785767339
61740;BME280;47645;45.288;12.038;2023-12-04T08:24:43;1023.3078900562111;;;1.992578125;97.66935621564714
61740;BME280;47645;45.288;12.038;2023-12-04T08:34:43;1023.2615765199719;;;2.0638671875;96.53238611010075
61740;BME280;47645;45.288;12.038;2023-12-04T08:44:46;1023.3670102729742;;;2.323828125;95.86137076745662
61740;BME280;47645;45.288;12.038;2023-12-04T08:54:44;1023.4101429583179;;;2.695703125;92.1022216834124
61740;BME280;47645;45.288;12.038;2023-12-04T09:04:45;1023.3786611245156;;;2.7416015625;91.18787731309803
61740;BME280;47645;45.288;12.038;2023-12-04T09:14:45;1023.3307540323747;;;2.6396484375;90.83707506667623
61740;BME280;47645;45.288;12.038;2023-12-04T09:24:45;1023.4345919061334;;;3.11875;89.17426742942538
61740;BME280;47645;45.288;12.038;2023-12-04T09:34:46;1023.2308198103095;;;3.3736328125;87.53461467973597
61740;BME280;47645;45.288;12.038;2023-12-04T09:44:47;1022.8676527977894;;;3.4958984375;85.5925563226611
61740;BME280;47645;45.288;12.038;2023-12-04T09:54:47;1022.6935739546232;;;3.4908203125;86.66804053928223
61740;BME280;47645;45.288;12.038;2023-12-04T10:04:47;1022.4245099594962;;;3.7251953125;86.06787945479225
61740;BME280;47645;45.288;12.038;2023-12-04T10:15:05;1022.2330742759914;;;4.2552734375;83.272602689676
61740;BME280;47645;45.288;12.038;2023-12-04T10:24:48;1022.0377564824273;;;4.0564453125;80.58597079966496
61740;BME280;47645;45.288;12.038;2023-12-04T10:34:49;1021.8625715993685;;;4.4234375;79.04845724526467
61740;BME280;47645;45.288;12.038;2023-12-04T10:44:49;1021.8446460820466;;;4.8208984375;76.67602576302627
61740;BME280;47645;45.288;12.038;2023-12-04T10:54:50;1021.563174529418;;;4.662890625;74.44133127568875
61740;BME280;47645;45.288;12.038;2023-12-04T11:04:51;1021.3089720371023;;;5.0349609375;76.82181314568867
61740;BME280;47645;45.288;12.038;2023-12-04T11:14:55;1021.1743519825422;;;4.96875;74.31978635981903
61740;BME280;47645;45.288;12.038;2023-12-04T11:24:51;1020.856298750596;;;5.0349609375;73.1955804164443
61740;BME280;47645;45.288;12.038;2023-12-04T11:34:54;1021.0277509075902;;;4.856640625;74.65096892468851
61740;BME280;47645;45.288;12.038;2023-12-04T11:44:57;1020.9695910037522;;;4.99921875;74.5043496197099
61740;BME280;47645;45.288;12.038;2023-12-04T11:54:57;1020.8254406320219;;;5.3509765625;74.36556626921934
61740;BME280;47645;45.288;12.038;2023-12-04T12:04:54;1020.7981055252842;;;5.549609375;71.80422817034112
61740;BME280;47645;45.288;12.038;2023-12-04T12:14:53;1020.6334011850001;;;5.44765625;75.20766763850443
61740;BME280;47645;45.288;12.038;2023-12-04T12:24:54;1020.498458033411;;;5.5853515625;74.36931279811688
61740;BME280;47645;45.288;12.038;2023-12-04T12:34:58;1020.425193173391;;;5.76875;73.41727062863578
61740;BME280;47645;45.288;12.038;2023-12-04T12:45:00;1020.2513704803168;;;5.860546875;74.97016830902949
61740;BME280;47645;45.288;12.038;2023-12-04T12:54:55;1020.070727563102;;;6.04921875;72.878784505847
61740;BME280;47645;45.288;12.038;2023-12-04T13:04:56;1019.900332519571;;;6.288671875;76.47570451201314
61740;BME280;47645;45.288;12.038;2023-12-04T13:14:57;1019.9295899831897;;;6.4619140625;73.17714242182423
61740;BME280;47645;45.288;12.038;2023-12-04T13:24:57;1019.7098553013186;;;6.4466796875;77.44611820415793
61740;BME280;47645;45.288;12.038;2023-12-04T13:34:57;1019.6030193829948;;;6.288671875;73.87869379935961
61740;BME280;47645;45.288;12.038;2023-12-04T13:45:00;1019.5693106565368;;;6.2376953125;74.73818232261385
61740;BME280;47645;45.288;12.038;2023-12-04T13:54:58;1019.7813624107081;;;5.9318359375;75.43812053069688
61740;BME280;47645;45.288;12.038;2023-12-04T14:04:58;1019.7638520956895;;;5.9013671875;76.37463041343713
61740;BME280;47645;45.288;12.038;2023-12-04T14:14:59;1019.648495025454;;;5.967578125;81.56296622378154
61740;BME280;47645;45.288;12.038;2023-12-04T14:24:59;1019.6272903596416;;;5.7791015625;76.0929972738664
61740;BME280;47645;45.288;12.038;2023-12-04T14:35:00;1019.5496473601069;;;5.5650390625;81.30392677320663
61740;BME280;47645;45.288;12.038;2023-12-04T14:45:00;1019.5147759735487;;;5.549609375;77.58819548296471
61740;BME280;47645;45.288;12.038;2023-12-04T14:55:46;1019.5392459455761;;;5.5546875;83.92761645082403
61740;BME280;47645;45.288;12.038;2023-12-04T15:06:08;1019.4222954907913;;;5.4986328125;85.54113601505027
61740;BME280;47645;45.288;12.038;2023-12-04T15:15:15;1019.3283779062497;;;5.3814453125;82.48283000231052
61740;BME280;47645;45.288;12.038;2023-12-04T15:25:03;1019.2332810942328;;;5.208203125;85.07147855380065
61740;BME280;47645;45.288;12.038;2023-12-04T15:35:05;1019.3498957185209;;;5.0298828125;84.66766183771479
61740;BME280;47645;45.288;12.038;2023-12-04T15:45:04;1019.3090682045818;;;4.871875;88.64022402722136
61740;BME280;47645;45.288;12.038;2023-12-04T15:55:04;1019.204112418158;;;4.769921875;93.48287463005543
61740;BME280;47645;45.288;12.038;2023-12-04T16:00:06;1019.2367661407629;;;4.775;93.5550752479658
61740;BME280;47645;45.288;12.038;2023-12-04T16:10:06;1019.3632903281189;;;4.99921875;93.30080616892796
61740;BME280;47645;45.288;12.038;2023-12-04T16:20:08;1019.4309665611065;;;5.2794921875;92.5560157425269
61740;BME280;47645;45.288;12.038;2023-12-04T16:30:06;1019.5348832228531;;;5.335546875;93.25659964605353
61740;BME280;47645;45.288;12.038;2023-12-04T16:40:14;1019.6220528820432;;;4.5916015625;93.60665787739227
61740;BME280;47645;45.288;12.038;2023-12-04T16:50:06;1019.6951763185099;;;4.3927734375;97.83847397778291
61740;BME280;47645;45.288;12.038;2023-12-04T17:00:14;1019.614961123434;;;3.9392578125;100
61740;BME280;47645;45.288;12.038;2023-12-04T17:10:12;1019.4219215558078;;;3.7201171875;100
61740;BME280;47645;45.288;12.038;2023-12-04T17:20:10;1019.4308806122979;;;3.6640625;100
61740;BME280;47645;45.288;12.038;2023-12-04T17:30:10;1019.2217664548297;;;3.3072265625;100
61740;BME280;47645;45.288;12.038;2023-12-04T17:40:11;1019.2084136114961;;;3.3021484375;100
61740;BME280;47645;45.288;12.038;2023-12-04T17:50:11;1019.1314243865496;;;3.4703125;100
61740;BME280;47645;45.288;12.038;2023-12-04T18:00:16;1019.158934493271;;;3.55703125;100
61740;BME280;47645;45.288;12.038;2023-12-04T18:10:10;1019.0779702103982;;;3.358203125;100
61740;BME280;47645;45.288;12.038;2023-12-04T18:20:11;1019.0750486924094;;;3.562109375;100
61740;BME280;47645;45.288;12.038;2023-12-04T18:30:11;1018.9453064749354;;;3.455078125;100
61740;BME280;47645;45.288;12.038;2023-12-04T18:40:15;1018.9228400679776;;;3.4142578125;100
61740;BME280;47645;45.288;12.038;2023-12-04T18:50:11;1018.7690255900004;;;3.582421875;100
61740;BME280;47645;45.288;12.038;2023-12-04T19:00:12;1018.6756097181965;;;3.5162109375;100
61740;BME280;47645;45.288;12.038;2023-12-04T19:10:13;1018.6948594369882;;;3.5978515625;100
61740;BME280;47645;45.288;12.038;2023-12-04T19:20:13;1018.5887061365631;;;3.796484375;100
61740;BME280;47645;45.288;12.038;2023-12-04T19:30:13;1018.483603303444;;;3.7048828125;100
61740;BME280;47645;45.288;12.038;2023-12-04T19:40:15;1018.3764148508814;;;3.6181640625;100
61740;BME280;47645;45.288;12.038;2023-12-04T19:50:14;1018.2868989111289;;;3.475390625;100
61740;BME280;47645;45.288;12.038;2023-12-04T20:00:16;1018.1365908624178;;;3.4703125;100
61740;BME280;47645;45.288;12.038;2023-12-04T20:10:15;1018.1225262227299;;;3.5263671875;100
61740;BME280;47645;45.288;12.038;2023-12-04T20:20:17;1018.170773477634;;;3.6181640625;100
61740;BME280;47645;45.288;12.038;2023-12-04T20:30:15;1018.0562879610202;;;3.5162109375;100
61740;BME280;47645;45.288;12.038;2023-12-04T20:40:16;1017.9588615771057;;;3.5263671875;100
61740;BME280;47645;45.288;12.038;2023-12-04T20:50:16;1017.8534720232651;;;3.669140625;100
61740;BME280;47645;45.288;12.038;2023-12-04T21:00:17;1017.7227934104335;;;3.444921875;100
61740;BME280;47645;45.288;12.038;2023-12-04T21:10:17;1017.6479440535682;;;3.5060546875;100
61740;BME280;47645;45.288;12.038;2023-12-04T21:20:18;1017.6062201380554;;;3.1390625;100
61740;BME280;47645;45.288;12.038;2023-12-04T21:30:18;1017.5258143471733;;;2.558203125;100
61740;BME280;47645;45.288;12.038;2023-12-04T21:40:18;1017.3449385016297;;;2.4052734375;100
61740;BME280;47645;45.288;12.038;2023-12-04T21:50:21;1017.3088876814201;;;2.68046875;100
61740;BME280;47645;45.288;12.038;2023-12-04T22:00:21;1017.2632224387252;;;2.4970703125;100
61740;BME280;47645;45.288;12.038;2023-12-04T22:10:20;1017.1536640678883;;;2.5427734375;100
61740;BME280;47645;45.288;12.038;2023-12-04T22:20:21;1017.1554821105582;;;2.48671875;100
61740;BME280;47645;45.288;12.038;2023-12-04T22:30:21;1017.0296561065472;;;2.4103515625;100
61740;BME280;47645;45.288;12.038;2023-12-04T22:40:22;1016.8972223645475;;;2.323828125;100
61740;BME280;47645;45.288;12.038;2023-12-04T22:50:22;1016.8709833415431;;;2.4154296875;100
61740;BME280;47645;45.288;12.038;2023-12-04T23:00:26;1016.7107282749458;;;2.4154296875;100
61740;BME280;47645;45.288;12.038;2023-12-04T23:10:23;1016.6231333020731;;;2.6041015625;100
61740;BME280;47645;45.288;12.038;2023-12-04T23:20:23;1016.5088107852032;;;2.5427734375;100
61740;BME280;47645;45.288;12.038;2023-12-04T23:30:23;1016.4216250774133;;;2.4255859375;100
61740;BME280;47645;45.288;12.038;2023-12-04T23:40:24;1016.3137174951567;;;2.3185546875;100
61740;BME280;47645;45.288;12.038;2023-12-04T23:50:24;1016.0827745607479;;;2.2013671875;100
